Abney, South Carolina
Current Conditions -  °F | °C
As of 6:15 PM on Tuesday 27 Jan 2015 (Local Time) from KCDN Reporting Station
Clear Clear  
Wind Chill: 40°   Ceiling: Unl
Heat Index: 43°   Visibility: 10mi
Dew Point: 25°   Wind: 5mph
Humidity: 49%   Direction: 260°W
Pressure: 29.91"   Gusts: NA
Location:  34.5438°N, 80.5351°W
Report Text: KCDN 272315Z AUTO 26004KT 10SM CLR 06/M04 A2991 RMK AO2 TSNO
Loading
Personal Weather Stations






























Interactive Weather Map New forecast layout! Learn more

10-Day Weather Forecast

Advertisements
Track Severe Weather on mobile